Time;durP1;ratioP1;P1;durP2;ratioP2;P2;SDS_P1;SDS_P2;PMS_P1;PMS_P2;Temp;Humidity;BMP_temperature;BMP_pressure;BME280_temperature;BME280_humidity;BME280_pressure;Samples;Min_cycle;Max_cycle;Signal;HPM_P1;HPM_P2
2021/08/20 00:00:26;;;;;;;4.53;1.88;;;;;;;16.63;92.25;98785.97;4989538;28;20026;-73
2021/08/20 00:02:51;;;;;;;3.08;1.98;;;;;;;16.52;92.48;98774.03;4992531;28;20388;-73
2021/08/20 00:05:16;;;;;;;3.88;2.15;;;;;;;16.40;92.77;98757.69;4992354;28;20411;-73
2021/08/20 00:07:42;;;;;;;3.97;1.88;;;;;;;16.56;92.99;98783.41;4986930;28;20023;-73
2021/08/20 00:10:08;;;;;;;2.45;1.63;;;;;;;16.55;93.23;98778.19;4973332;28;20393;-73
2021/08/20 00:12:34;;;;;;;4.82;1.85;;;;;;;16.32;93.44;98747.16;4981104;28;20369;-73
2021/08/20 00:15:00;;;;;;;5.68;1.77;;;;;;;16.49;93.90;98785.44;4981653;28;20034;-73
2021/08/20 00:17:25;;;;;;;3.80;2.03;;;;;;;16.52;93.99;98781.41;4976748;28;20022;-73
2021/08/20 00:19:51;;;;;;;3.42;1.55;;;;;;;16.53;94.49;98780.31;4992475;28;20109;-73
2021/08/20 00:22:17;;;;;;;3.42;1.73;;;;;;;16.51;95.35;98786.03;4991216;28;20045;-75
2021/08/20 00:24:42;;;;;;;4.32;1.77;;;;;;;16.51;95.94;98787.94;4992552;28;20057;-73
2021/08/20 00:27:08;;;;;;;4.30;1.90;;;;;;;16.32;96.68;98759.97;4992492;28;20030;-73
2021/08/20 00:29:33;;;;;;;3.33;1.60;;;;;;;16.40;98.16;98767.78;4985580;28;20031;-73
2021/08/20 00:31:59;;;;;;;6.07;1.80;;;;;;;16.40;98.08;98782.28;4984070;28;20077;-73
2021/08/20 00:34:25;;;;;;;4.10;2.03;;;;;;;16.37;98.47;98771.84;4992257;28;20030;-73
2021/08/20 00:36:50;;;;;;;3.97;2.03;;;;;;;16.37;98.29;98776.44;4989220;28;20032;-73
2021/08/20 00:39:15;;;;;;;2.05;1.60;;;;;;;16.34;97.97;98771.47;4990395;28;20081;-73
2021/08/20 00:41:43;;;;;;;2.83;1.75;;;;;;;16.31;97.50;98772.78;4992097;28;20057;-73
2021/08/20 00:44:09;;;;;;;3.92;2.20;;;;;;;16.32;95.47;98758.09;4991480;28;20030;-73
2021/08/20 00:46:34;;;;;;;3.97;2.10;;;;;;;16.13;95.20;98721.09;4992578;28;20467;-73
2021/08/20 00:49:00;;;;;;;4.20;1.92;;;;;;;16.36;94.90;98755.69;4990987;28;20022;-73
2021/08/20 00:51:29;;;;;;;2.33;1.70;;;;;;;16.48;95.25;98782.94;4992279;28;20073;-73
2021/08/20 00:53:56;;;;;;;4.68;1.58;;;;;;;16.48;95.48;98777.47;4985517;28;20031;-72
2021/08/20 00:56:22;;;;;;;2.10;1.67;;;;;;;16.38;96.07;98773.50;4984043;28;20034;-75
2021/08/20 00:58:49;;;;;;;5.20;1.95;;;;;;;16.35;96.70;98768.53;4979806;28;20089;-73
2021/08/20 01:01:15;;;;;;;10.00;1.90;;;;;;;16.39;96.56;98780.59;4994950;28;20034;-73
2021/08/20 01:03:40;;;;;;;4.47;1.95;;;;;;;16.36;96.76;98783.81;4994495;28;20026;-73
2021/08/20 01:06:07;;;;;;;2.60;1.75;;;;;;;16.21;96.47;98756.19;4993688;28;20523;-73
2021/08/20 01:08:34;;;;;;;4.13;2.00;;;;;;;16.33;96.36;98780.75;4996109;28;20064;-73
2021/08/20 01:11:01;;;;;;;2.83;1.80;;;;;;;16.31;95.71;98769.22;4994342;28;20029;-73
2021/08/20 01:13:31;;;;;;;4.55;1.95;;;;;;;16.25;95.20;98756.56;4988261;28;20092;-73
2021/08/20 01:15:57;;;;;;;2.92;1.70;;;;;;;16.16;94.76;98737.81;4996128;28;20061;-73
2021/08/20 01:18:24;;;;;;;4.20;1.98;;;;;;;16.33;94.75;98767.91;4995729;28;20053;-73
2021/08/20 01:20:51;;;;;;;3.05;1.77;;;;;;;16.34;95.10;98766.84;4982625;28;20477;-73
2021/08/20 01:23:18;;;;;;;2.70;1.92;;;;;;;16.05;95.02;98718.75;4993518;28;20129;-73
2021/08/20 01:25:44;;;;;;;5.63;2.03;;;;;;;16.17;95.33;98739.47;4995709;28;20053;-73
2021/08/20 01:28:10;;;;;;;3.53;1.77;;;;;;;16.28;95.36;98759.63;4988372;28;20105;-73
2021/08/20 01:30:36;;;;;;;5.55;2.40;;;;;;;16.25;95.65;98762.03;4989963;28;20102;-73
2021/08/20 01:33:02;;;;;;;1.75;1.40;;;;;;;16.30;95.57;98771.13;4991927;28;20022;-73
2021/08/20 01:35:27;;;;;;;4.15;2.00;;;;;;;16.25;95.66;98754.66;4995819;28;20030;-73
2021/08/20 01:37:53;;;;;;;3.42;1.88;;;;;;;16.30;95.37;98764.84;4991945;28;20053;-73
2021/08/20 01:40:19;;;;;;;3.13;1.55;;;;;;;16.14;94.99;98750.06;4994958;28;20027;-73
2021/08/20 01:42:44;;;;;;;2.83;1.77;;;;;;;16.23;94.79;98745.03;4995485;28;20034;-73
2021/08/20 01:45:10;;;;;;;3.50;1.80;;;;;;;16.28;94.04;98745.97;4995505;28;20615;-73
2021/08/20 01:47:35;;;;;;;3.90;1.90;;;;;;;16.36;94.24;98770.16;4989011;28;20034;-73
2021/08/20 01:50:01;;;;;;;3.17;1.63;;;;;;;16.19;94.48;98736.50;4989079;28;20512;-73
2021/08/20 01:52:26;;;;;;;2.78;1.85;;;;;;;16.25;95.00;98762.84;4995250;28;20116;-73
2021/08/20 01:54:51;;;;;;;2.78;1.98;;;;;;;16.16;95.24;98745.16;4995003;28;20644;-73
2021/08/20 01:57:17;;;;;;;6.68;2.10;;;;;;;16.27;95.60;98760.72;4993413;28;20092;-73
2021/08/20 01:59:42;;;;;;;8.13;1.90;;;;;;;16.02;95.70;98725.50;4993527;28;20433;-73
2021/08/20 02:04:35;;;;;;;4.38;2.00;;;;;;;16.23;96.42;98759.53;4993314;28;20408;-68
2021/08/20 02:07:00;;;;;;;2.53;1.60;;;;;;;16.17;96.59;98749.56;4995528;28;20042;-69
2021/08/20 02:09:26;;;;;;;2.50;1.92;;;;;;;16.21;96.62;98764.38;4992575;28;20037;-69
2021/08/20 02:11:52;;;;;;;2.90;1.60;;;;;;;16.17;96.72;98755.03;4997832;28;20484;-69
2021/08/20 02:14:18;;;;;;;5.78;1.70;;;;;;;16.21;96.38;98761.66;4980131;28;20037;-69
2021/08/20 02:16:43;;;;;;;5.28;1.70;;;;;;;16.10;96.08;98754.31;4967784;28;20483;-68
2021/08/20 02:19:09;;;;;;;5.78;2.05;;;;;;;16.14;95.81;98761.81;4994901;28;20062;-68
2021/08/20 02:21:34;;;;;;;2.75;1.73;;;;;;;16.14;95.73;98760.97;4992252;28;20049;-69
2021/08/20 02:23:59;;;;;;;3.45;1.88;;;;;;;16.16;95.75;98761.53;4994986;28;20085;-68
2021/08/20 02:26:25;;;;;;;3.65;1.77;;;;;;;16.13;95.69;98753.84;4994254;28;20022;-69
2021/08/20 02:28:50;;;;;;;2.80;1.75;;;;;;;16.13;95.88;98764.75;4978198;28;20085;-69
2021/08/20 02:31:15;;;;;;;6.07;2.10;;;;;;;16.04;95.82;98758.03;4992863;28;20030;-68
2021/08/20 02:33:44;;;;;;;2.40;1.73;;;;;;;16.07;95.69;98765.72;4984954;28;20492;-69
2021/08/20 02:36:11;;;;;;;7.30;2.20;;;;;;;16.03;96.00;98759.91;4977418;28;20030;-68
2021/08/20 02:38:37;;;;;;;3.95;2.20;;;;;;;16.03;95.92;98759.06;4994978;28;20096;-68
2021/08/20 02:41:02;;;;;;;8.85;2.10;;;;;;;16.08;95.33;98770.09;4982020;28;20524;-69
2021/08/20 02:43:28;;;;;;;2.22;1.70;;;;;;;16.14;95.07;98767.25;4965115;28;20049;-69
2021/08/20 02:45:53;;;;;;;2.90;1.90;;;;;;;16.11;95.41;98766.91;4981544;28;20049;-69
2021/08/20 02:48:19;;;;;;;4.57;1.58;;;;;;;16.14;95.62;98763.72;4994237;28;20030;-68
2021/08/20 02:50:44;;;;;;;5.97;2.10;;;;;;;16.21;95.46;98772.56;4994957;28;20054;-69
2021/08/20 02:53:09;;;;;;;3.88;1.95;;;;;;;16.19;95.06;98758.31;4992530;28;20479;-69
2021/08/20 02:55:35;;;;;;;3.38;1.75;;;;;;;16.14;95.12;98755.53;4985254;28;20035;-69
2021/08/20 02:58:00;;;;;;;4.88;2.00;;;;;;;16.11;96.05;98762.28;4985522;28;20476;-70
2021/08/20 03:00:25;;;;;;;4.10;2.10;;;;;;;16.11;96.44;98766.91;4994651;28;20037;-70
2021/08/20 03:02:51;;;;;;;6.40;2.20;;;;;;;16.16;96.18;98769.72;4993823;28;20038;-70
2021/08/20 03:05:16;;;;;;;8.20;2.10;;;;;;;16.11;96.05;98748.66;4989283;28;20031;-70
2021/08/20 03:07:42;;;;;;;5.40;1.80;;;;;;;16.12;96.21;98763.94;4994217;28;20038;-70
2021/08/20 03:10:08;;;;;;;5.03;1.63;;;;;;;16.11;96.79;98775.06;4984431;28;20046;-69
2021/08/20 03:12:33;;;;;;;3.65;2.40;;;;;;;16.04;96.91;98752.56;4990929;28;20038;-69
2021/08/20 03:14:59;;;;;;;3.63;1.80;;;;;;;16.08;96.72;98761.91;4990296;28;20100;-70
2021/08/20 03:17:25;;;;;;;3.08;1.88;;;;;;;16.15;96.83;98758.00;4974464;28;20026;-70
2021/08/20 03:19:50;;;;;;;3.75;1.88;;;;;;;16.18;96.53;98754.78;4976784;28;20041;-69
2021/08/20 03:22:15;;;;;;;6.07;1.98;;;;;;;16.14;96.67;98752.78;4993151;28;20102;-69
2021/08/20 03:24:40;;;;;;;4.57;2.20;;;;;;;16.07;96.58;98754.81;4989516;28;20571;-69
2021/08/20 03:27:06;;;;;;;5.60;2.25;;;;;;;16.09;96.63;98760.88;4990758;28;20026;-69
2021/08/20 03:29:31;;;;;;;3.20;2.08;;;;;;;16.24;95.96;98760.34;4976200;28;20022;-69
2021/08/20 03:31:57;;;;;;;3.30;2.20;;;;;;;16.17;96.26;98763.22;4976055;28;20021;-69
2021/08/20 03:34:22;;;;;;;3.08;1.92;;;;;;;16.16;96.86;98764.28;4993153;28;20022;-69
2021/08/20 03:36:47;;;;;;;17.40;2.40;;;;;;;16.13;97.09;98762.03;4988886;28;20054;-69
2021/08/20 03:39:13;;;;;;;5.22;2.20;;;;;;;16.08;97.37;98753.72;4983426;28;20035;-69
2021/08/20 03:41:38;;;;;;;3.65;2.38;;;;;;;16.10;98.42;98766.06;4976842;28;20045;-69
2021/08/20 03:44:03;;;;;;;3.50;2.00;;;;;;;16.05;98.88;98754.22;4988033;28;20031;-69
2021/08/20 03:46:29;;;;;;;5.40;2.17;;;;;;;16.09;99.14;98767.16;4993278;28;20076;-70
2021/08/20 03:48:54;;;;;;;4.95;2.22;;;;;;;16.19;99.10;98758.31;4988280;28;20033;-70
2021/08/20 03:51:19;;;;;;;3.65;2.13;;;;;;;16.13;98.72;98770.22;4974869;28;20027;-69
2021/08/20 03:53:45;;;;;;;5.32;2.10;;;;;;;16.12;99.00;98761.22;4985595;28;20031;-69
2021/08/20 03:56:11;;;;;;;3.88;2.40;;;;;;;16.23;98.47;98773.16;4978877;28;20101;-69
2021/08/20 03:58:36;;;;;;;3.95;2.50;;;;;;;16.30;98.37;98773.88;4979019;28;20065;-68
2021/08/20 04:01:06;;;;;;;7.13;2.17;;;;;;;16.17;97.63;98765.94;4983243;28;20045;-68
2021/08/20 04:03:31;;;;;;;5.97;2.13;;;;;;;16.15;97.53;98765.34;4975766;28;20038;-68
2021/08/20 04:05:56;;;;;;;7.15;2.17;;;;;;;16.11;97.25;98758.72;4987365;28;20030;-69
2021/08/20 04:08:22;;;;;;;6.10;2.30;;;;;;;16.12;97.34;98774.84;4992360;28;20076;-69
2021/08/20 04:10:47;;;;;;;4.97;2.45;;;;;;;16.07;97.58;98773.91;5005973;28;20640;-68
2021/08/20 04:13:13;;;;;;;3.17;1.95;;;;;;;16.05;97.66;98768.69;4991116;28;20495;-68
2021/08/20 04:15:39;;;;;;;5.45;1.80;;;;;;;16.02;97.79;98774.63;4993236;28;20490;-68
2021/08/20 04:18:05;;;;;;;3.05;1.85;;;;;;;15.96;98.14;98781.06;4993427;28;20027;-68
2021/08/20 04:20:31;;;;;;;4.35;1.70;;;;;;;15.89;98.43;98775.72;4992214;28;20037;-68
2021/08/20 04:22:58;;;;;;;4.13;2.42;;;;;;;15.92;98.54;98786.13;4973528;28;20381;-68
2021/08/20 04:25:24;;;;;;;5.43;2.17;;;;;;;15.90;98.83;98788.31;4983719;28;20029;-69
2021/08/20 04:27:50;;;;;;;3.83;2.10;;;;;;;15.86;98.80;98781.66;4992840;28;20049;-69
2021/08/20 04:30:18;;;;;;;5.53;1.73;;;;;;;15.92;98.77;98790.78;4992524;28;20037;-68
2021/08/20 04:32:43;;;;;;;4.78;2.00;;;;;;;15.92;98.42;98794.31;4985768;28;20035;-68
2021/08/20 04:35:09;;;;;;;5.28;1.90;;;;;;;15.93;98.63;98789.72;4973885;28;20038;-69
2021/08/20 04:37:34;;;;;;;4.45;2.10;;;;;;;15.94;98.88;98791.38;4984063;28;20030;-68
2021/08/20 04:39:59;;;;;;;4.82;1.77;;;;;;;15.94;98.79;98788.63;4990318;28;20044;-74
2021/08/20 04:42:25;;;;;;;4.72;2.25;;;;;;;15.93;98.68;98790.53;4973783;28;20081;-72
2021/08/20 04:44:50;;;;;;;5.55;2.33;;;;;;;15.95;99.04;98803.94;4972464;28;20031;-71
2021/08/20 04:47:15;;;;;;;3.42;2.40;;;;;;;15.97;98.27;98788.97;4966706;28;20023;-74
2021/08/20 04:49:41;;;;;;;6.28;2.17;;;;;;;16.12;98.08;98795.88;4981061;28;20030;-72
2021/08/20 04:52:06;;;;;;;3.60;2.22;;;;;;;16.02;97.74;98773.81;4997090;28;20026;-73
2021/08/20 04:54:32;;;;;;;2.83;1.90;;;;;;;16.15;96.94;98785.28;4992073;28;20026;-71
2021/08/20 04:56:57;;;;;;;5.93;2.00;;;;;;;16.26;96.45;98790.97;4988940;28;20065;-73
2021/08/20 04:59:22;;;;;;;5.70;2.35;;;;;;;16.11;97.08;98795.03;4985059;28;20548;-73
2021/08/20 05:01:47;;;;;;;3.53;2.25;;;;;;;16.08;97.82;98805.59;4991874;28;20098;-73
2021/08/20 05:04:14;;;;;;;6.00;1.90;;;;;;;16.05;97.88;98803.34;4974243;28;20042;-73
2021/08/20 05:06:39;;;;;;;2.35;1.70;;;;;;;16.05;97.97;98806.06;4989706;28;20030;-73
2021/08/20 05:09:06;;;;;;;2.80;1.65;;;;;;;16.07;97.92;98804.75;4984634;28;20042;-73
2021/08/20 05:11:33;;;;;;;3.13;2.10;;;;;;;16.05;98.06;98806.91;4987914;28;20061;-76
2021/08/20 05:13:59;;;;;;;2.78;1.90;;;;;;;16.13;98.72;98824.81;4989562;28;20545;-75
2021/08/20 05:16:24;;;;;;;8.30;2.10;;;;;;;16.14;98.43;98826.47;4981845;28;20113;-76
2021/08/20 05:18:49;;;;;;;5.80;2.22;;;;;;;16.14;98.40;98819.13;4974072;28;20110;-76
2021/08/20 05:21:15;;;;;;;4.88;1.77;;;;;;;16.05;98.54;98803.34;4989695;28;20027;-77
2021/08/20 05:23:40;;;;;;;5.22;2.10;;;;;;;16.21;97.92;98822.53;4967488;28;20496;-76
2021/08/20 05:26:05;;;;;;;4.60;1.75;;;;;;;16.24;97.43;98837.59;4978240;28;20030;-76
2021/08/20 05:28:31;;;;;;;5.10;2.30;;;;;;;16.24;97.24;98829.41;4982636;28;20027;-76
2021/08/20 05:30:56;;;;;;;6.18;2.30;;;;;;;16.32;97.20;98844.59;4991822;28;20504;-74
2021/08/20 05:33:21;;;;;;;4.15;2.15;;;;;;;16.31;96.77;98821.94;4974251;28;20088;-74
2021/08/20 05:35:47;;;;;;;5.00;2.45;;;;;;;16.39;96.35;98829.75;4962719;28;20033;-76
2021/08/20 05:38:14;;;;;;;6.72;2.00;;;;;;;16.47;95.40;98835.91;4971954;28;20030;-78
2021/08/20 05:40:39;;;;;;;3.75;2.03;;;;;;;16.34;94.67;98796.88;4989336;28;20022;-78
2021/08/20 05:43:05;;;;;;;4.05;2.17;;;;;;;16.58;94.26;98824.97;4980030;28;20030;-79
2021/08/20 05:45:30;;;;;;;4.05;2.00;;;;;;;16.75;93.48;98846.88;4957092;28;20019;-79
2021/08/20 05:47:55;;;;;;;7.15;2.17;;;;;;;16.70;93.08;98835.84;4976110;28;20050;-74
2021/08/20 05:50:21;;;;;;;3.13;2.08;;;;;;;16.76;93.46;98855.91;4992167;28;20026;-74
2021/08/20 05:52:46;;;;;;;5.68;2.20;;;;;;;16.77;93.74;98839.31;4994983;28;20025;-75
2021/08/20 05:55:12;;;;;;;5.13;1.98;;;;;;;16.82;94.35;98841.28;4991204;28;20505;-75
2021/08/20 05:57:38;;;;;;;4.00;1.80;;;;;;;16.96;94.34;98855.53;4977412;28;20031;-71
2021/08/20 06:00:05;;;;;;;6.05;2.30;;;;;;;16.98;93.25;98858.84;4993887;28;20387;-72
2021/08/20 06:02:31;;;;;;;3.05;1.90;;;;;;;16.99;93.25;98853.13;4993563;28;20472;-69
2021/08/20 06:04:57;;;;;;;6.28;2.20;;;;;;;17.07;92.47;98854.63;4995547;28;20037;-69
2021/08/20 06:07:22;;;;;;;10.63;2.38;;;;;;;17.21;91.69;98860.63;4992897;28;20018;-69
2021/08/20 06:09:48;;;;;;;4.00;2.30;;;;;;;17.28;90.46;98847.66;4994089;28;20106;-69
2021/08/20 06:12:14;;;;;;;4.97;2.55;;;;;;;17.34;89.38;98867.69;4979938;28;20015;-69
2021/08/20 06:14:39;;;;;;;3.50;2.20;;;;;;;17.41;89.30;98862.91;4986538;28;20400;-69
2021/08/20 06:17:05;;;;;;;9.23;2.50;;;;;;;17.53;89.02;98867.25;4978777;28;20034;-69
2021/08/20 06:19:30;;;;;;;3.42;2.17;;;;;;;17.71;88.90;98868.06;4982269;28;20043;-70
2021/08/20 06:21:55;;;;;;;3.53;2.28;;;;;;;17.89;88.26;98858.81;4982044;28;20105;-69
2021/08/20 06:24:21;;;;;;;7.43;2.58;;;;;;;18.03;86.64;98871.09;4981633;28;20034;-69
2021/08/20 06:26:46;;;;;;;4.32;2.00;;;;;;;18.24;86.21;98865.94;4981496;28;20037;-69
2021/08/20 06:29:13;;;;;;;5.78;2.40;;;;;;;18.45;84.93;98875.28;4986397;28;20041;-69
2021/08/20 06:31:39;;;;;;;3.47;2.05;;;;;;;18.54;84.94;98881.94;4976708;28;20085;-69
2021/08/20 06:34:04;;;;;;;6.05;1.95;;;;;;;18.66;83.75;98882.66;5000885;28;20113;-69
2021/08/20 06:36:29;;;;;;;4.65;2.50;;;;;;;18.74;84.19;98887.72;4987826;28;20110;-69
2021/08/20 06:38:55;;;;;;;5.05;2.50;;;;;;;18.81;83.08;98876.56;4981402;28;20030;-69
2021/08/20 06:41:20;;;;;;;4.60;1.92;;;;;;;19.04;82.63;98870.00;4985230;28;20491;-71
2021/08/20 06:43:45;;;;;;;4.53;2.35;;;;;;;19.36;79.34;98863.75;4984123;28;20118;-74
2021/08/20 06:46:11;;;;;;;7.78;2.42;;;;;;;19.69;78.09;98881.94;4974257;28;20121;-72
2021/08/20 06:48:36;;;;;;;5.30;2.17;;;;;;;19.85;75.92;98875.47;4973739;28;20026;-75
2021/08/20 06:51:01;;;;;;;8.88;2.65;;;;;;;20.27;74.14;98866.44;4971929;28;20035;-69
2021/08/20 06:53:28;;;;;;;3.97;2.35;;;;;;;20.41;73.46;98866.81;4987526;28;20374;-70
2021/08/20 06:55:53;;;;;;;4.03;2.10;;;;;;;20.97;72.07;98875.34;4988325;28;20061;-73
2021/08/20 06:58:18;;;;;;;3.05;2.20;;;;;;;21.75;67.57;98863.41;4988265;28;20172;-70
2021/08/20 07:00:44;;;;;;;7.90;2.53;;;;;;;22.60;64.64;98865.50;4993979;28;20022;-71
2021/08/20 07:03:09;;;;;;;4.03;2.30;;;;;;;22.95;62.61;98864.56;4967862;28;20034;-70
2021/08/20 07:05:36;;;;;;;4.97;2.47;;;;;;;22.73;63.75;98864.91;4970224;28;20097;-70
2021/08/20 07:08:01;;;;;;;8.90;2.80;;;;;;;22.57;64.19;98873.53;4981654;28;20031;-70
2021/08/20 07:10:26;;;;;;;4.30;2.58;;;;;;;22.14;64.53;98867.50;4980755;28;20037;-72
2021/08/20 07:12:52;;;;;;;5.55;2.53;;;;;;;22.90;62.96;98867.34;4979283;28;20057;-70
2021/08/20 07:15:17;;;;;;;3.53;2.38;;;;;;;23.26;62.22;98861.66;4981746;28;20384;-70
2021/08/20 07:17:42;;;;;;;5.43;2.60;;;;;;;23.09;62.14;98864.78;4982442;28;20057;-70
2021/08/20 07:20:09;;;;;;;7.00;2.70;;;;;;;23.58;60.89;98860.34;4982265;28;20110;-70
2021/08/20 07:22:35;;;;;;;5.80;2.55;;;;;;;25.05;56.95;98867.50;4981958;28;20122;-70
2021/08/20 07:25:00;;;;;;;5.50;2.40;;;;;;;26.95;51.98;98859.59;4971175;28;20113;-70
2021/08/20 07:27:26;;;;;;;5.25;2.90;;;;;;;27.42;49.80;98863.03;4982170;28;20101;-70
2021/08/20 07:29:51;;;;;;;3.53;2.42;;;;;;;26.86;50.96;98863.09;4981152;28;20041;-70
2021/08/20 07:32:16;;;;;;;7.03;2.58;;;;;;;25.69;54.16;98859.66;4980808;28;20014;-71
2021/08/20 07:34:42;;;;;;;5.30;2.75;;;;;;;25.41;54.68;98859.50;4985549;28;20042;-73
2021/08/20 07:37:08;;;;;;;3.72;2.53;;;;;;;25.68;54.07;98861.59;4988538;28;20018;-70
2021/08/20 07:39:36;;;;;;;3.80;2.78;;;;;;;27.40;49.32;98873.63;4982641;28;20079;-72
2021/08/20 07:42:02;;;;;;;6.40;2.55;;;;;;;29.65;45.36;98856.44;4990459;28;20471;-72
2021/08/20 07:44:27;;;;;;;3.85;2.55;;;;;;;31.07;41.40;98841.38;4975866;28;20060;-72
2021/08/20 07:46:52;;;;;;;4.80;2.75;;;;;;;32.06;39.28;98853.97;4991832;28;20527;-72
2021/08/20 07:49:18;;;;;;;4.68;2.42;;;;;;;32.90;36.09;98837.63;4985486;28;20027;-73
2021/08/20 07:51:43;;;;;;;4.32;3.22;;;;;;;32.68;37.07;98854.94;4978580;28;20077;-73
2021/08/20 07:54:09;;;;;;;3.95;2.83;;;;;;;31.19;39.82;98854.63;4984101;28;20064;-72
2021/08/20 07:56:34;;;;;;;3.67;2.45;;;;;;;31.08;40.32;98851.44;4979001;28;20058;-72
2021/08/20 07:58:59;;;;;;;6.43;2.85;;;;;;;33.17;37.52;98852.16;4982004;28;20030;-72
2021/08/20 08:01:24;;;;;;;4.55;2.80;;;;;;;34.47;34.71;98847.06;4982100;28;20065;-72
2021/08/20 08:03:50;;;;;;;5.00;3.30;;;;;;;34.54;34.23;98846.44;5056128;23;20559;-68
2021/08/20 08:06:16;;;;;;;3.30;2.38;;;;;;;35.56;32.82;98840.84;5004445;28;20276;-72
2021/08/20 08:08:42;;;;;;;4.60;2.65;;;;;;;36.47;31.06;98855.53;5005086;28;20022;-72
2021/08/20 08:11:09;;;;;;;4.63;3.25;;;;;;;36.68;30.13;98841.03;5006135;28;20021;-71
2021/08/20 08:13:36;;;;;;;3.67;2.80;;;;;;;36.15;31.12;98850.13;5005413;28;20160;-72
2021/08/20 08:16:02;;;;;;;3.92;2.58;;;;;;;36.41;30.53;98855.03;5012300;28;20490;-72
2021/08/20 08:18:27;;;;;;;8.18;2.80;;;;;;;36.23;30.48;98842.63;5011405;28;20034;-72
2021/08/20 08:20:53;;;;;;;2.92;2.20;;;;;;;34.42;33.73;98844.53;4994082;28;20026;-72
2021/08/20 08:23:18;;;;;;;3.27;2.30;;;;;;;33.41;35.50;98840.06;5010471;28;20041;-73
2021/08/20 08:25:43;;;;;;;4.90;3.33;;;;;;;33.85;34.44;98850.56;5011867;28;20317;-74
2021/08/20 08:28:08;;;;;;;5.03;2.63;;;;;;;34.56;33.93;98858.16;5012503;28;20276;-77
2021/08/20 08:30:39;;;;;;;4.80;3.28;;;;;;;34.75;32.51;98834.97;5010776;28;20403;-77
2021/08/20 08:33:06;;;;;;;3.92;2.55;;;;;;;34.84;32.60;98862.88;5012811;28;20067;-75
2021/08/20 08:35:32;;;;;;;3.70;2.40;;;;;;;35.21;31.11;98851.31;5010297;28;20028;-72
2021/08/20 08:38:08;;;;;;;7.72;2.55;;;;;;;35.72;31.03;98859.72;5002132;28;20026;-80
2021/08/20 08:40:35;;;;;;;4.60;2.60;;;;;;;34.99;31.98;98862.03;5014386;28;20058;-81
2021/08/20 08:43:07;;;;;;;4.00;2.58;;;;;;;34.34;33.12;98875.59;5017256;28;20026;-80
2021/08/20 08:45:33;;;;;;;4.22;2.75;;;;;;;36.13;30.76;98868.56;5018042;28;20022;-81
2021/08/20 08:48:02;;;;;;;7.07;2.70;;;;;;;36.97;29.32;98867.69;5018688;28;20022;-79
2021/08/20 08:50:28;;;;;;;5.40;2.90;;;;;;;37.79;27.55;98845.50;5023912;28;20094;-82
2021/08/20 08:52:53;;;;;;;3.97;2.90;;;;;;;37.91;27.58;98850.06;5038987;28;20029;-83
2021/08/20 08:55:19;;;;;;;4.22;2.88;;;;;;;35.08;31.83;98834.56;5036189;28;20014;-83
2021/08/20 08:57:44;;;;;;;3.85;2.72;;;;;;;35.18;31.13;98821.91;5005735;28;20037;-83
2021/08/20 09:00:10;;;;;;;3.88;2.13;;;;;;;35.34;30.85;98850.84;5017277;28;20030;-81
2021/08/20 09:02:36;;;;;;;6.50;2.20;;;;;;;32.90;34.40;98864.84;5015397;28;20032;-81
2021/08/20 09:05:10;;;;;;;3.67;2.25;;;;;;;30.02;38.92;98863.25;5016599;28;20494;-81
2021/08/20 09:07:37;;;;;;;2.92;2.00;;;;;;;28.50;42.25;98875.94;5009144;28;20499;-80
2021/08/20 09:10:19;;;;;;;9.82;2.70;;;;;;;27.34;45.14;98874.91;5018877;28;20037;-81
2021/08/20 09:12:56;;;;;;;3.53;2.50;;;;;;;26.23;47.99;98852.66;5020405;28;20029;-80
2021/08/20 09:15:24;;;;;;;6.00;2.67;;;;;;;25.96;47.70;98862.56;5016577;28;20041;-80
2021/08/20 09:17:55;;;;;;;4.68;2.75;;;;;;;25.58;48.26;98864.53;5018121;28;20036;-80
2021/08/20 09:20:27;;;;;;;5.72;2.92;;;;;;;25.12;50.30;98859.63;5020354;28;20030;-80
2021/08/20 09:22:56;;;;;;;5.18;2.95;;;;;;;24.77;52.52;98874.75;5027757;28;20049;-80
2021/08/20 09:25:45;;;;;;;5.10;2.70;;;;;;;25.51;50.36;98873.22;5026665;28;20025;-79
2021/08/20 09:28:16;;;;;;;5.18;2.50;;;;;;;29.04;43.36;98867.44;5024332;28;20373;-80
2021/08/20 09:31:03;;;;;;;4.07;2.53;;;;;;;28.51;43.07;98849.75;5026311;28;20089;-80
2021/08/20 09:33:45;;;;;;;6.32;2.80;;;;;;;27.00;44.83;98862.25;5020566;28;20260;-79
2021/08/20 09:36:20;;;;;;;5.80;2.97;;;;;;;28.00;45.02;98878.88;5028655;28;20531;-81
2021/08/20 09:38:50;;;;;;;5.53;2.60;;;;;;;31.42;38.90;98858.78;5028781;28;20052;-80
2021/08/20 09:41:24;;;;;;;2.83;2.10;;;;;;;34.22;34.06;98865.28;5019416;28;20026;-80
2021/08/20 09:43:55;;;;;;;7.68;2.58;;;;;;;34.65;32.20;98847.56;5020603;28;20040;-80
2021/08/20 09:46:21;;;;;;;4.85;2.33;;;;;;;36.16;29.00;98859.41;5019426;28;20037;-79
2021/08/20 09:48:49;;;;;;;6.13;2.08;;;;;;;37.69;27.23;98863.13;5018341;28;20126;-79
2021/08/20 09:51:41;;;;;;;4.28;2.63;;;;;;;37.36;28.33;98861.84;5020311;28;20387;-80
2021/08/20 09:54:09;;;;;;;3.85;2.13;;;;;;;35.94;29.85;98858.94;5033408;28;20069;-80
2021/08/20 09:56:36;;;;;;;;;;;;;;;28.82;39.18;98871.97;5033444;28;20030;-80
2021/08/20 09:59:04;;;;;;;2.13;1.80;;;;;;;31.80;35.04;98856.97;5028269;28;19940;-80
2021/08/20 10:01:31;;;;;;;3.83;1.80;;;;;;;33.99;32.32;98860.19;5032330;28;20040;-81
2021/08/20 10:04:05;;;;;;;3.03;1.98;;;;;;;35.63;28.32;98845.03;5036968;28;20030;-82
2021/08/20 10:06:34;;;;;;;3.05;1.60;;;;;;;36.49;26.85;98863.63;5034426;28;20045;-81
2021/08/20 10:09:03;;;;;;;3.55;1.75;;;;;;;36.00;28.15;98865.09;5019771;28;20036;-81
2021/08/20 10:11:31;;;;;;;6.20;1.80;;;;;;;35.78;28.76;98853.38;5013548;28;20025;-80
2021/08/20 10:14:01;;;;;;;5.50;1.75;;;;;;;36.98;28.57;98843.13;5019749;28;20036;-81
2021/08/20 10:16:29;;;;;;;2.60;1.90;;;;;;;36.96;27.26;98854.75;5018636;28;20813;-81
2021/08/20 10:18:55;;;;;;;2.92;1.70;;;;;;;36.41;28.81;98857.84;5017809;28;20026;-80
2021/08/20 10:21:22;;;;;;;3.25;1.80;;;;;;;37.33;27.82;98827.94;5012903;28;20025;-80
2021/08/20 10:23:48;;;;;;;3.20;1.88;;;;;;;36.51;26.57;98841.50;5012975;28;20044;-80
2021/08/20 10:26:15;;;;;;;3.05;1.55;;;;;;;36.72;28.70;98839.09;5016237;28;20026;-79
2021/08/20 10:28:41;;;;;;;2.72;1.48;;;;;;;33.90;29.42;98813.81;5017459;28;20029;-80
2021/08/20 10:31:09;;;;;;;2.33;1.42;;;;;;;31.79;33.87;98839.38;5014971;28;20064;-80
2021/08/20 10:33:37;;;;;;;3.13;1.60;;;;;;;32.38;33.21;98848.66;5014068;28;20045;-79
2021/08/20 10:36:04;;;;;;;3.10;1.83;;;;;;;32.80;32.22;98821.28;5012227;28;20041;-79
2021/08/20 10:38:38;;;;;;;4.50;1.60;;;;;;;32.73;32.98;98843.50;5011170;28;20034;-80
2021/08/20 10:41:15;;;;;;;3.40;2.30;;;;;;;34.60;29.72;98833.78;5012797;28;20022;-79
2021/08/20 10:43:52;;;;;;;2.78;1.40;;;;;;;36.39;27.84;98817.13;5011507;28;20084;-79
2021/08/20 10:46:32;;;;;;;3.05;1.70;;;;;;;36.32;27.68;98837.56;5011833;28;20491;-80
2021/08/20 10:51:50;;;;;;;4.78;1.55;;;;;;;35.08;27.96;98837.38;5013087;28;20805;-79
2021/08/20 10:54:22;;;;;;;1.55;1.23;;;;;;;35.14;27.50;98820.22;5028967;28;20037;-80
2021/08/20 10:56:47;;;;;;;3.22;1.70;;;;;;;34.34;28.50;98830.66;5012984;28;20521;-80
2021/08/20 10:59:37;;;;;;;3.47;1.50;;;;;;;34.40;28.25;98834.81;5011668;28;20124;-79
2021/08/20 11:02:26;;;;;;;2.17;1.33;;;;;;;34.53;28.68;98822.31;5009894;28;20437;-79
2021/08/20 11:05:12;;;;;;;3.33;1.52;;;;;;;36.12;27.09;98819.06;4985915;28;20761;-78
2021/08/20 11:07:41;;;;;;;4.95;1.80;;;;;;;35.35;28.60;98826.31;4999756;28;20602;-80
2021/08/20 11:10:09;;;;;;;3.75;1.30;;;;;;;30.25;33.79;98832.41;5005234;28;20253;-79
2021/08/20 11:12:49;;;;;;;2.50;1.90;;;;;;;29.10;37.78;98829.16;5011711;28;20096;-78
2021/08/20 11:15:33;;;;;;;2.33;1.70;;;;;;;30.19;37.00;98819.75;5010996;28;20116;-78
2021/08/20 11:18:02;;;;;;;2.63;1.33;;;;;;;32.77;31.57;98827.59;5006849;28;20395;-78
2021/08/20 11:20:38;;;;;;;4.07;1.63;;;;;;;34.89;29.42;98820.41;5010658;28;20116;-79
2021/08/20 11:25:42;;;;;;;2.85;1.70;;;;;;;35.14;26.84;98831.47;5015789;28;20042;-79
2021/08/20 11:28:24;;;;;;;2.25;1.60;;;;;;;32.96;29.12;98827.03;5014699;28;20116;-80
2021/08/20 11:31:05;;;;;;;2.50;1.83;;;;;;;30.81;32.15;98827.56;5013068;28;20044;-79
2021/08/20 11:33:34;;;;;;;1.83;1.33;;;;;;;33.02;31.22;98816.41;5010204;28;20026;-79
2021/08/20 11:36:17;;;;;;;2.33;1.30;;;;;;;34.57;27.98;98820.47;5010655;28;20045;-79
2021/08/20 11:39:00;;;;;;;3.25;1.52;;;;;;;36.03;25.66;98836.19;5010731;28;20045;-79
2021/08/20 11:41:41;;;;;;;1.70;1.40;;;;;;;36.26;25.31;98824.16;5010392;28;20029;-78